Time;durP1;ratioP1;P1;durP2;ratioP2;P2;SDS_P1;SDS_P2;PMS_P1;PMS_P2;Temp;Humidity;BMP_temperature;BMP_pressure;BME280_temperature;BME280_humidity;BME280_pressure;Samples;Min_cycle;Max_cycle;Signal;HPM_P1;HPM_P2
2021/10/08 00:02:11;;;;;;;24.47;11.60;;;;;;;;;;5060493;28;20506;-82
2021/10/08 00:04:40;;;;;;;23.13;10.50;;;;;;;;;;5054418;28;20495;-80
2021/10/08 00:07:07;;;;;;;22.50;10.27;;;;;;;;;;5034931;28;20535;-81
2021/10/08 00:09:34;;;;;;;22.70;11.70;;;;;;;;;;5034378;28;20863;-81
2021/10/08 00:12:01;;;;;;;25.30;12.03;;;;;;;;;;5034437;28;20465;-79
2021/10/08 00:14:29;;;;;;;23.40;12.00;;;;;;;;;;5040316;28;20459;-80
2021/10/08 00:16:56;;;;;;;24.50;10.77;;;;;;;;;;5055446;28;20478;-81
2021/10/08 00:19:24;;;;;;;23.70;11.47;;;;;;;;;;5051395;28;20447;-81
2021/10/08 00:21:53;;;;;;;21.70;10.27;;;;;;;;;;5054686;28;20453;-82
2021/10/08 00:24:20;;;;;;;24.47;11.50;;;;;;;;;;5051173;28;20454;-81
2021/10/08 00:26:47;;;;;;;22.00;10.50;;;;;;;;;;5056092;28;20473;-81
2021/10/08 00:29:15;;;;;;;27.23;11.60;;;;;;;;;;5057400;28;20497;-81
2021/10/08 00:31:42;;;;;;;23.43;10.33;;;;;;;;;;5056729;28;20458;-81
2021/10/08 00:34:09;;;;;;;24.43;10.83;;;;;;;;;;5062772;28;20451;-82
2021/10/08 00:36:36;;;;;;;24.43;10.10;;;;;;;;;;5052739;28;21020;-82
2021/10/08 00:39:05;;;;;;;25.10;10.90;;;;;;;;;;5055491;28;20579;-82
2021/10/08 00:41:32;;;;;;;21.83;10.13;;;;;;;;;;5056162;28;20906;-81
2021/10/08 00:43:59;;;;;;;23.43;9.97;;;;;;;;;;5055674;28;20450;-82
2021/10/08 00:46:27;;;;;;;22.00;10.33;;;;;;;;;;5056131;28;20493;-81
2021/10/08 00:48:54;;;;;;;25.27;11.30;;;;;;;;;;5056446;28;20582;-82
2021/10/08 00:51:23;;;;;;;23.70;11.60;;;;;;;;;;5037890;28;20458;-83
2021/10/08 00:53:50;;;;;;;22.33;10.47;;;;;;;;;;5037182;28;20736;-83
2021/10/08 00:56:19;;;;;;;24.77;10.87;;;;;;;;;;5054763;28;20480;-81
2021/10/08 00:58:46;;;;;;;27.87;11.80;;;;;;;;;;5054660;28;20446;-82
2021/10/08 01:01:16;;;;;;;24.37;11.17;;;;;;;;;;5054297;28;20465;-82
2021/10/08 01:03:44;;;;;;;22.30;10.50;;;;;;;;;;5054671;28;20484;-83
2021/10/08 01:06:11;;;;;;;23.77;10.50;;;;;;;;;;5036052;28;21030;-81
2021/10/08 01:08:38;;;;;;;21.53;10.23;;;;;;;;;;5034390;28;20487;-79
2021/10/08 01:11:05;;;;;;;23.53;11.00;;;;;;;;;;5048529;28;20477;-82
2021/10/08 01:13:34;;;;;;;19.73;9.53;;;;;;;;;;5053591;28;20451;-84
2021/10/08 01:16:01;;;;;;;22.00;10.17;;;;;;;;;;5061538;28;20481;-83
2021/10/08 01:18:28;;;;;;;21.80;10.37;;;;;;;;;;5062819;28;20444;-83
2021/10/08 01:20:57;;;;;;;21.00;10.00;;;;;;;;;;5057096;28;20458;-84
2021/10/08 01:23:24;;;;;;;21.57;9.80;;;;;;;;;;5066533;28;20449;-84
2021/10/08 01:25:52;;;;;;;25.20;10.90;;;;;;;;;;5065813;28;20468;-84
2021/10/08 01:28:20;;;;;;;21.77;9.47;;;;;;;;;;5069055;28;20493;-83
2021/10/08 01:30:47;;;;;;;20.57;9.37;;;;;;;;;;5055265;28;20464;-83
2021/10/08 01:33:14;;;;;;;23.50;9.10;;;;;;;;;;5070690;28;20461;-82
2021/10/08 01:35:41;;;;;;;20.93;9.77;;;;;;;;;;5068864;28;20478;-83
2021/10/08 01:38:10;;;;;;;22.73;10.13;;;;;;;;;;5071384;28;20560;-84
2021/10/08 01:40:37;;;;;;;21.33;9.30;;;;;;;;;;5066521;28;20484;-83
2021/10/08 01:43:04;;;;;;;19.97;8.97;;;;;;;;;;5068987;28;20454;-83
2021/10/08 01:45:31;;;;;;;20.77;9.37;;;;;;;;;;5070369;28;20518;-82
2021/10/08 01:47:58;;;;;;;21.33;9.33;;;;;;;;;;5068031;28;20486;-86
2021/10/08 01:50:25;;;;;;;23.97;9.60;;;;;;;;;;5079069;28;20492;-83
2021/10/08 01:52:53;;;;;;;20.93;9.60;;;;;;;;;;5063703;28;20540;-85
2021/10/08 01:55:21;;;;;;;24.30;9.27;;;;;;;;;;5082077;28;20450;-85
2021/10/08 01:57:48;;;;;;;20.00;8.20;;;;;;;;;;5066617;28;20831;-86
2021/10/08 02:00:16;;;;;;;20.27;8.60;;;;;;;;;;5076384;28;20543;-84
2021/10/08 02:02:43;;;;;;;19.07;7.27;;;;;;;;;;5064763;28;20449;-84
2021/10/08 02:05:10;;;;;;;20.03;8.40;;;;;;;;;;5071043;28;20453;-85
2021/10/08 02:07:38;;;;;;;23.03;8.63;;;;;;;;;;5081498;28;20461;-84
2021/10/08 02:10:05;;;;;;;19.73;7.97;;;;;;;;;;5067614;28;20506;-85
2021/10/08 02:12:34;;;;;;;20.20;8.43;;;;;;;;;;5059007;28;20455;-84
2021/10/08 02:15:01;;;;;;;20.90;9.30;;;;;;;;;;5042565;28;20446;-84
2021/10/08 02:17:29;;;;;;;19.73;8.50;;;;;;;;;;5053109;28;20491;-84
2021/10/08 02:19:56;;;;;;;19.90;8.97;;;;;;;;;;5064725;28;20531;-85
2021/10/08 02:22:23;;;;;;;24.33;9.70;;;;;;;;;;5056516;28;20457;-84
2021/10/08 02:24:50;;;;;;;20.50;8.73;;;;;;;;;;5079385;28;20452;-83
2021/10/08 02:27:17;;;;;;;19.47;8.77;;;;;;;;;;5074863;28;20856;-84
2021/10/08 02:29:46;;;;;;;20.47;8.60;;;;;;;;;;5057897;28;20498;-85
2021/10/08 02:32:13;;;;;;;22.00;8.90;;;;;;;;;;5053378;28;20457;-83
2021/10/08 02:34:40;;;;;;;20.60;9.20;;;;;;;;;;5057871;28;20459;-85
2021/10/08 02:37:07;;;;;;;20.27;8.37;;;;;;;;;;5059968;28;20947;-82
2021/10/08 02:39:34;;;;;;;20.53;8.30;;;;;;;;;;5062715;28;20444;-83
2021/10/08 02:42:01;;;;;;;19.10;8.00;;;;;;;;;;5065771;28;20454;-81
2021/10/08 02:44:28;;;;;;;22.43;8.50;;;;;;;;;;5056800;28;20967;-82
2021/10/08 02:46:57;;;;;;;18.83;8.50;;;;;;;;;;5070240;28;20513;-84
2021/10/08 02:49:24;;;;;;;18.97;7.80;;;;;;;;;;5068453;28;20491;-83
2021/10/08 02:51:51;;;;;;;20.30;8.30;;;;;;;;;;5047397;28;20445;-83
2021/10/08 02:54:18;;;;;;;18.37;7.77;;;;;;;;;;5048474;28;20483;-85
2021/10/08 02:56:45;;;;;;;20.60;8.00;;;;;;;;;;5062843;28;21024;-84
2021/10/08 02:59:13;;;;;;;20.30;8.93;;;;;;;;;;5060681;28;20448;-85
2021/10/08 03:01:40;;;;;;;19.17;8.40;;;;;;;;;;5071538;28;20540;-83
2021/10/08 03:04:09;;;;;;;20.83;8.87;;;;;;;;;;5074784;28;20962;-83
2021/10/08 03:06:36;;;;;;;19.00;8.00;;;;;;;;;;5071892;28;20468;-84
2021/10/08 03:09:03;;;;;;;18.73;8.47;;;;;;;;;;5065839;28;20490;-82
2021/10/08 03:11:31;;;;;;;19.00;7.93;;;;;;;;;;5068907;28;20482;-83
2021/10/08 03:13:58;;;;;;;20.80;8.73;;;;;;;;;;5057994;28;20441;-84
2021/10/08 03:16:25;;;;;;;21.67;9.03;;;;;;;;;;5057987;28;20484;-83
2021/10/08 03:18:52;;;;;;;22.00;7.73;;;;;;;;;;5058646;28;20453;-83
2021/10/08 03:21:21;;;;;;;20.53;8.83;;;;;;;;;;5068424;28;20466;-84
2021/10/08 03:23:48;;;;;;;22.50;9.03;;;;;;;;;;5047606;28;20449;-83
2021/10/08 03:26:15;;;;;;;19.23;8.97;;;;;;;;;;5055479;28;20518;-83
2021/10/08 03:28:42;;;;;;;21.03;9.03;;;;;;;;;;5057417;28;20482;-82
2021/10/08 03:31:09;;;;;;;20.40;8.00;;;;;;;;;;5066260;28;20465;-83
2021/10/08 03:33:36;;;;;;;18.90;7.70;;;;;;;;;;5061401;28;20452;-83
2021/10/08 03:36:08;;;;;;;13.73;5.43;;;;;;;;;;5060741;28;20492;-81
2021/10/08 03:38:37;;;;;;;16.40;6.70;;;;;;;;;;5057327;28;20455;-81
2021/10/08 03:41:09;;;;;;;16.87;7.40;;;;;;;;;;5053114;28;20448;-82
2021/10/08 03:43:37;;;;;;;17.97;6.60;;;;;;;;;;5074083;28;20512;-82
2021/10/08 03:46:07;;;;;;;19.13;7.03;;;;;;;;;;5094436;22;20513;-85
2021/10/08 03:51:18;;;;;;;19.23;6.77;;;;;;;;;;5041252;28;20454;-81
2021/10/08 03:53:46;;;;;;;18.73;6.30;;;;;;;;;;5040717;28;20969;-81
2021/10/08 03:56:14;;;;;;;18.23;7.53;;;;;;;;;;5047801;28;20466;-81
2021/10/08 03:58:41;;;;;;;21.20;6.80;;;;;;;;;;5075942;28;20538;-81
2021/10/08 04:01:08;;;;;;;18.47;6.67;;;;;;;;;;5073963;28;20451;-81
2021/10/08 04:03:35;;;;;;;18.70;6.80;;;;;;;;;;5060014;28;20551;-81
2021/10/08 04:06:02;;;;;;;18.63;6.30;;;;;;;;;;5059762;28;20458;-80
2021/10/08 04:08:30;;;;;;;22.03;7.10;;;;;;;;;;5060380;28;20524;-81
2021/10/08 04:10:58;;;;;;;19.90;7.07;;;;;;;;;;5063429;28;20485;-81
2021/10/08 04:13:25;;;;;;;23.17;7.73;;;;;;;;;;5061515;28;20455;-81
2021/10/08 04:15:52;;;;;;;17.40;7.33;;;;;;;;;;5060353;28;20464;-82
2021/10/08 04:18:19;;;;;;;17.80;7.13;;;;;;;;;;5072200;28;20449;-80
2021/10/08 04:20:47;;;;;;;18.50;7.23;;;;;;;;;;5075679;28;20453;-81
2021/10/08 04:23:14;;;;;;;18.30;8.10;;;;;;;;;;5058864;28;20472;-82
2021/10/08 04:25:41;;;;;;;20.50;7.37;;;;;;;;;;5073084;28;20451;-82
2021/10/08 04:28:10;;;;;;;18.47;8.73;;;;;;;;;;5078003;28;20556;-83
2021/10/08 04:30:37;;;;;;;18.87;7.17;;;;;;;;;;5076300;28;20482;-80
2021/10/08 04:33:13;;;;;;;20.40;7.07;;;;;;;;;;5057958;28;20460;-83
2021/10/08 04:35:40;;;;;;;17.87;6.60;;;;;;;;;;5058191;28;20450;-82
2021/10/08 04:38:07;;;;;;;17.70;7.27;;;;;;;;;;5058780;28;20473;-83
2021/10/08 04:40:34;;;;;;;18.93;8.03;;;;;;;;;;5063966;28;20437;-82
2021/10/08 04:43:01;;;;;;;19.10;7.90;;;;;;;;;;5057024;28;20870;-82
2021/10/08 04:45:29;;;;;;;19.13;8.20;;;;;;;;;;5057426;28;20457;-83
2021/10/08 04:47:57;;;;;;;17.70;7.40;;;;;;;;;;5056810;28;20490;-83
2021/10/08 04:50:24;;;;;;;20.47;7.63;;;;;;;;;;5058662;28;20531;-82
2021/10/08 04:52:52;;;;;;;18.47;7.87;;;;;;;;;;5063779;28;20456;-82
2021/10/08 04:55:19;;;;;;;19.17;7.93;;;;;;;;;;5064479;28;20460;-83
2021/10/08 04:57:46;;;;;;;18.77;7.40;;;;;;;;;;5064889;28;20831;-82
2021/10/08 05:00:14;;;;;;;17.67;6.80;;;;;;;;;;5068062;28;20440;-81
2021/10/08 05:02:42;;;;;;;20.93;7.87;;;;;;;;;;5074367;28;20440;-81
2021/10/08 05:05:10;;;;;;;20.70;8.20;;;;;;;;;;5063129;28;20559;-81
2021/10/08 05:07:37;;;;;;;21.23;7.47;;;;;;;;;;5064041;28;20503;-82
2021/10/08 05:10:04;;;;;;;19.83;8.20;;;;;;;;;;5064299;28;20491;-82
2021/10/08 05:12:32;;;;;;;19.07;7.03;;;;;;;;;;5063668;28;20461;-82
2021/10/08 05:14:59;;;;;;;19.17;8.17;;;;;;;;;;5064083;28;20448;-82
2021/10/08 05:17:26;;;;;;;19.60;8.37;;;;;;;;;;5063196;28;20464;-82
2021/10/08 05:19:55;;;;;;;21.20;7.27;;;;;;;;;;5063921;28;20476;-81
2021/10/08 05:22:22;;;;;;;18.73;8.43;;;;;;;;;;5062383;28;20466;-82
2021/10/08 05:24:49;;;;;;;19.50;7.87;;;;;;;;;;5065116;28;20454;-82
2021/10/08 05:27:16;;;;;;;17.60;7.57;;;;;;;;;;5065667;28;20479;-81
2021/10/08 05:29:43;;;;;;;19.93;6.93;;;;;;;;;;5079090;28;20480;-81
2021/10/08 05:32:10;;;;;;;21.10;7.90;;;;;;;;;;5073022;28;20451;-81
2021/10/08 05:34:38;;;;;;;20.70;8.00;;;;;;;;;;5065525;28;20452;-81
2021/10/08 05:37:06;;;;;;;21.23;7.90;;;;;;;;;;5066225;28;20510;-81
2021/10/08 05:39:34;;;;;;;22.37;8.90;;;;;;;;;;5065478;28;20444;-81
2021/10/08 05:42:01;;;;;;;21.00;7.90;;;;;;;;;;5065732;28;20452;-81
2021/10/08 05:44:28;;;;;;;20.13;8.07;;;;;;;;;;5075837;28;20452;-81
2021/10/08 05:46:55;;;;;;;23.50;8.37;;;;;;;;;;5086217;28;20486;-81
2021/10/08 05:49:22;;;;;;;23.93;8.10;;;;;;;;;;5079307;28;20483;-81
2021/10/08 05:51:50;;;;;;;23.30;8.10;;;;;;;;;;5057936;28;21317;-80
2021/10/08 05:54:18;;;;;;;18.37;7.13;;;;;;;;;;5061361;28;20842;-80
2021/10/08 05:56:45;;;;;;;21.03;8.10;;;;;;;;;;5062546;28;20574;-80
2021/10/08 05:59:13;;;;;;;19.37;6.93;;;;;;;;;;5040192;28;20457;-81
2021/10/08 06:01:42;;;;;;;19.93;7.10;;;;;;;;;;5057710;28;20475;-80
2021/10/08 06:04:09;;;;;;;18.70;7.73;;;;;;;;;;5062472;28;20455;-82
2021/10/08 06:06:36;;;;;;;19.90;8.27;;;;;;;;;;5080326;28;20996;-81
2021/10/08 06:09:04;;;;;;;20.77;7.60;;;;;;;;;;5079042;28;20454;-80
2021/10/08 06:11:32;;;;;;;22.23;8.10;;;;;;;;;;5063472;28;20452;-81
2021/10/08 06:13:59;;;;;;;18.77;7.97;;;;;;;;;;5059342;28;20453;-81
2021/10/08 06:16:26;;;;;;;18.13;7.83;;;;;;;;;;5060309;28;20473;-80
2021/10/08 06:18:55;;;;;;;20.03;8.53;;;;;;;;;;5077587;28;20955;-81
2021/10/08 06:21:22;;;;;;;25.23;8.40;;;;;;;;;;5074892;28;20457;-81
2021/10/08 06:23:49;;;;;;;18.97;7.63;;;;;;;;;;5061740;28;20467;-81
2021/10/08 06:26:16;;;;;;;19.77;7.53;;;;;;;;;;5045783;28;20484;-80
2021/10/08 06:28:45;;;;;;;20.50;8.07;;;;;;;;;;5068354;28;20814;-81
2021/10/08 06:31:12;;;;;;;18.50;7.60;;;;;;;;;;5053556;28;20495;-80
2021/10/08 06:33:39;;;;;;;18.00;7.90;;;;;;;;;;5050857;28;20452;-82
2021/10/08 06:36:06;;;;;;;22.20;8.33;;;;;;;;;;5074769;28;20965;-81
2021/10/08 06:38:36;;;;;;;21.40;8.07;;;;;;;;;;5063556;28;20456;-81
2021/10/08 06:41:04;;;;;;;16.60;6.50;;;;;;;;;;5058879;28;20459;-81
2021/10/08 06:43:31;;;;;;;21.00;7.93;;;;;;;;;;5054847;28;20449;-81
2021/10/08 06:46:00;;;;;;;16.60;6.80;;;;;;;;;;5061215;28;20456;-81
2021/10/08 06:48:27;;;;;;;17.20;7.30;;;;;;;;;;5058364;28;20458;-82
2021/10/08 06:50:56;;;;;;;18.53;7.63;;;;;;;;;;5053649;28;21083;-80
2021/10/08 06:53:23;;;;;;;19.77;7.73;;;;;;;;;;5056143;28;20455;-80
2021/10/08 06:55:50;;;;;;;19.60;6.80;;;;;;;;;;5057087;28;20449;-81
2021/10/08 06:58:17;;;;;;;21.53;7.00;;;;;;;;;;5055242;28;20518;-81
2021/10/08 07:00:45;;;;;;;19.00;8.30;;;;;;;;;;5061748;28;20440;-79
2021/10/08 07:03:14;;;;;;;19.40;8.20;;;;;;;;;;5062264;28;20519;-80
2021/10/08 07:05:41;;;;;;;20.53;8.93;;;;;;;;;;5057875;28;20506;-81
2021/10/08 07:08:08;;;;;;;18.20;8.50;;;;;;;;;;5056687;28;21070;-81
2021/10/08 07:10:37;;;;;;;20.00;7.87;;;;;;;;;;5056540;28;20478;-80
2021/10/08 07:13:04;;;;;;;19.23;7.73;;;;;;;;;;5055902;28;20454;-80
2021/10/08 07:15:31;;;;;;;17.23;7.17;;;;;;;;;;5056315;28;20456;-81
2021/10/08 07:17:59;;;;;;;18.93;8.17;;;;;;;;;;5058410;28;20475;-80
2021/10/08 07:20:29;;;;;;;17.97;7.20;;;;;;;;;;5057051;28;20466;-80
2021/10/08 07:22:57;;;;;;;19.30;8.67;;;;;;;;;;5055754;28;20479;-83
2021/10/08 07:25:24;;;;;;;19.77;7.20;;;;;;;;;;5056577;28;20469;-82
2021/10/08 07:27:52;;;;;;;19.13;7.93;;;;;;;;;;5050612;28;20471;-82
2021/10/08 07:30:22;;;;;;;18.60;8.73;;;;;;;;;;5046378;28;20482;-82
2021/10/08 07:32:50;;;;;;;19.23;7.30;;;;;;;;;;5045528;28;20542;-79
2021/10/08 07:35:17;;;;;;;20.50;7.30;;;;;;;;;;5054445;28;20457;-79
2021/10/08 07:37:46;;;;;;;16.30;6.80;;;;;;;;;;5054073;28;20477;-79
2021/10/08 07:40:13;;;;;;;16.83;7.20;;;;;;;;;;5051107;28;20443;-78
2021/10/08 07:42:40;;;;;;;17.87;6.83;;;;;;;;;;5053648;28;20455;-80
2021/10/08 07:45:08;;;;;;;17.13;8.10;;;;;;;;;;5051890;28;20464;-79
2021/10/08 07:47:36;;;;;;;18.57;7.87;;;;;;;;;;5052802;28;20488;-79
2021/10/08 07:50:04;;;;;;;15.57;6.70;;;;;;;;;;5051391;28;20490;-79
2021/10/08 07:52:31;;;;;;;18.63;7.20;;;;;;;;;;5054567;28;20462;-82
2021/10/08 07:54:59;;;;;;;15.70;6.67;;;;;;;;;;5056360;28;20464;-80
2021/10/08 07:57:26;;;;;;;16.43;6.70;;;;;;;;;;5054213;28;20471;-79
2021/10/08 07:59:53;;;;;;;15.93;6.37;;;;;;;;;;5050119;28;20901;-81
2021/10/08 08:02:21;;;;;;;15.67;6.80;;;;;;;;;;5073980;28;20447;-81
2021/10/08 08:04:49;;;;;;;16.10;7.00;;;;;;;;;;5066454;28;20463;-80
2021/10/08 08:07:16;;;;;;;20.43;9.40;;;;;;;;;;5057542;28;20486;-82
2021/10/08 08:09:43;;;;;;;19.57;9.50;;;;;;;;;;5055665;28;20481;-80
2021/10/08 08:12:12;;;;;;;19.97;9.40;;;;;;;;;;5069637;28;20836;-80
2021/10/08 08:14:39;;;;;;;18.87;7.60;;;;;;;;;;5071352;28;20447;-80
2021/10/08 08:17:06;;;;;;;22.30;9.83;;;;;;;;;;5073666;28;20471;-82
2021/10/08 08:19:33;;;;;;;18.90;8.83;;;;;;;;;;5058189;28;20841;-80
2021/10/08 08:22:00;;;;;;;20.50;9.83;;;;;;;;;;5059555;28;20450;-82
2021/10/08 08:24:28;;;;;;;18.43;9.10;;;;;;;;;;5068466;28;20498;-81
2021/10/08 08:26:55;;;;;;;18.63;9.23;;;;;;;;;;5054703;28;20481;-81
2021/10/08 08:29:25;;;;;;;17.03;8.40;;;;;;;;;;5056598;28;20447;-81
2021/10/08 08:31:52;;;;;;;17.03;8.27;;;;;;;;;;5053734;28;20497;-81
2021/10/08 08:34:19;;;;;;;16.57;7.40;;;;;;;;;;5052511;28;20448;-82
2021/10/08 08:36:46;;;;;;;18.00;8.40;;;;;;;;;;5053355;28;20555;-81
2021/10/08 08:39:15;;;;;;;18.27;8.27;;;;;;;;;;5052096;28;20457;-82
2021/10/08 08:41:43;;;;;;;16.60;8.07;;;;;;;;;;5054015;28;20474;-82
2021/10/08 08:44:10;;;;;;;17.87;7.57;;;;;;;;;;5053454;28;20557;-82
2021/10/08 08:46:39;;;;;;;17.40;8.93;;;;;;;;;;5052602;28;20486;-82
2021/10/08 08:49:06;;;;;;;18.93;7.90;;;;;;;;;;5053681;28;20471;-82
2021/10/08 08:51:33;;;;;;;17.33;7.67;;;;;;;;;;5055134;28;20480;-83
2021/10/08 08:54:03;;;;;;;15.07;6.70;;;;;;;;;;5054992;28;20505;-83
2021/10/08 08:56:30;;;;;;;15.90;6.60;;;;;;;;;;5055048;28;20483;-83
2021/10/08 08:59:01;;;;;;;15.70;7.40;;;;;;;;;;5066126;28;20455;-84
2021/10/08 09:01:28;;;;;;;14.03;6.30;;;;;;;;;;5091178;28;20434;-82
2021/10/08 09:04:03;;;;;;;15.90;6.67;;;;;;;;;;5077502;28;20451;-82
2021/10/08 09:06:31;;;;;;;15.00;6.60;;;;;;;;;;5066308;28;20466;-81
2021/10/08 09:08:59;;;;;;;14.90;6.60;;;;;;;;;;5053494;28;20446;-82
2021/10/08 09:11:37;;;;;;;15.97;7.60;;;;;;;;;;5052497;28;20489;-82
2021/10/08 09:14:21;;;;;;;16.80;6.90;;;;;;;;;;5053631;28;20435;-82
2021/10/08 09:17:07;;;;;;;15.10;6.07;;;;;;;;;;5031853;28;20471;-80
2021/10/08 09:19:53;;;;;;;15.77;6.13;;;;;;;;;;5032754;28;20506;-80
2021/10/08 09:22:21;;;;;;;15.00;6.43;;;;;;;;;;5032692;28;20447;-80
2021/10/08 09:24:49;;;;;;;15.70;5.53;;;;;;;;;;5036122;28;20444;-80
2021/10/08 09:27:17;;;;;;;15.20;6.10;;;;;;;;;;5051622;28;20472;-80
2021/10/08 09:29:49;;;;;;;15.83;6.20;;;;;;;;;;5052111;28;20995;-80
2021/10/08 09:32:16;;;;;;;15.07;5.83;;;;;;;;;;5052416;28;20493;-80
2021/10/08 09:34:43;;;;;;;14.23;4.90;;;;;;;;;;5070984;28;20465;-79
2021/10/08 09:37:13;;;;;;;15.27;4.70;;;;;;;;;;5052074;28;20467;-80
2021/10/08 09:39:41;;;;;;;15.00;5.07;;;;;;;;;;5055147;28;20458;-80
2021/10/08 09:42:11;;;;;;;11.70;4.70;;;;;;;;;;5054101;28;21014;-81
2021/10/08 09:44:38;;;;;;;13.30;4.93;;;;;;;;;;5054919;28;20459;-83
2021/10/08 09:47:13;;;;;;;12.27;4.13;;;;;;;;;;5055545;28;20486;-81
2021/10/08 09:49:40;;;;;;;12.90;5.10;;;;;;;;;;5037695;28;20542;-82
2021/10/08 09:52:25;;;;;;;13.17;5.30;;;;;;;;;;5035738;28;20491;-81
2021/10/08 09:54:53;;;;;;;14.20;4.60;;;;;;;;;;5041168;28;20965;-82
2021/10/08 09:57:21;;;;;;;15.73;5.47;;;;;;;;;;5055628;28;20471;-82
2021/10/08 09:59:49;;;;;;;14.47;6.00;;;;;;;;;;5055522;28;20450;-82
2021/10/08 10:02:16;;;;;;;14.33;5.40;;;;;;;;;;5061995;28;20476;-81
2021/10/08 10:04:47;;;;;;;14.80;5.90;;;;;;;;;;5058962;28;20458;-83
2021/10/08 10:07:15;;;;;;;14.60;5.40;;;;;;;;;;5049829;28;20479;-81
2021/10/08 10:09:44;;;;;;;15.53;5.10;;;;;;;;;;5042362;28;20839;-81
2021/10/08 10:12:11;;;;;;;13.10;5.37;;;;;;;;;;5081040;28;20515;-81
2021/10/08 10:14:40;;;;;;;13.50;5.90;;;;;;;;;;5070719;28;20456;-83
2021/10/08 10:17:08;;;;;;;14.50;5.90;;;;;;;;;;5056824;28;20558;-82
2021/10/08 10:19:41;;;;;;;12.53;2.40;;;;;;;;;;5054972;28;20951;-85
2021/10/08 10:22:08;;;;;;;16.10;3.87;;;;;;;;;;5068734;28;20448;-83
2021/10/08 10:24:37;;;;;;;13.43;4.50;;;;;;;;;;5058927;28;20452;-86
2021/10/08 10:27:06;;;;;;;14.53;4.90;;;;;;;;;;5056058;28;20502;-86
2021/10/08 10:29:33;;;;;;;15.13;4.60;;;;;;;;;;5057558;28;20460;-85
2021/10/08 10:32:00;;;;;;;21.03;4.80;;;;;;;;;;5051286;28;20489;-84
2021/10/08 10:34:27;;;;;;;12.73;3.80;;;;;;;;;;5037789;28;20482;-84
2021/10/08 10:36:54;;;;;;;14.23;5.70;;;;;;;;;;5058143;28;20558;-84
2021/10/08 10:39:22;;;;;;;11.53;3.53;;;;;;;;;;5055756;28;20448;-85
2021/10/08 10:41:50;;;;;;;14.00;4.10;;;;;;;;;;5052392;28;20456;-84
2021/10/08 10:44:22;;;;;;;12.60;4.03;;;;;;;;;;5054993;28;20467;-84
2021/10/08 10:46:58;;;;;;;13.67;4.60;;;;;;;;;;5058277;28;20483;-86
2021/10/08 10:52:21;;;;;;;14.43;4.33;;;;;;;;;;5055403;28;20479;-84
2021/10/08 10:54:55;;;;;;;12.13;4.60;;;;;;;;;;5058079;28;20456;-85
2021/10/08 10:57:37;;;;;;;12.33;5.27;;;;;;;;;;5056943;28;20474;-85
2021/10/08 11:00:19;;;;;;;11.90;4.40;;;;;;;;;;5037132;28;20451;-84
2021/10/08 11:02:48;;;;;;;11.50;3.80;;;;;;;;;;5051499;28;20512;-82
2021/10/08 11:05:20;;;;;;;12.07;4.20;;;;;;;;;;5049272;28;20452;-86
2021/10/08 11:08:03;;;;;;;11.83;5.00;;;;;;;;;;5041835;28;20482;-85
2021/10/08 11:10:30;;;;;;;10.47;3.83;;;;;;;;;;5050590;28;20529;-85
2021/10/08 11:13:22;;;;;;;11.53;3.97;;;;;;;;;;5051689;28;20498;-84
2021/10/08 11:15:53;;;;;;;11.77;5.10;;;;;;;;;;5044180;28;20455;-83
2021/10/08 11:21:14;;;;;;;14.17;4.67;;;;;;;;;;5148130;27;20512;-85
2021/10/08 11:23:42;;;;;;;11.00;4.10;;;;;;;;;;5148174;27;20832;-85
2021/10/08 11:26:10;;;;;;;11.53;4.47;;;;;;;;;;5143674;27;20517;-84
2021/10/08 11:28:39;;;;;;;12.00;4.30;;;;;;;;;;5126717;28;20494;-84
2021/10/08 11:31:07;;;;;;;12.30;4.90;;;;;;;;;;5125797;28;20440;-83
2021/10/08 11:33:35;;;;;;;13.90;4.13;;;;;;;;;;5127380;28;20456;-83
2021/10/08 11:36:12;;;;;;;11.60;3.93;;;;;;;;;;5112112;28;20456;-84
2021/10/08 11:38:41;;;;;;;10.50;3.77;;;;;;;;;;5124546;28;20448;-84
2021/10/08 11:41:16;;;;;;;12.40;3.70;;;;;;;;;;5122592;28;21152;-83
2021/10/08 11:43:44;;;;;;;11.33;3.03;;;;;;;;;;5127741;28;20460;-83
2021/10/08 11:46:26;;;;;;;9.60;3.57;;;;;;;;;;5128270;27;20475;-83
2021/10/08 11:48:56;;;;;;;10.63;3.27;;;;;;;;;;5132791;28;20476;-87
2021/10/08 11:51:24;;;;;;;13.80;4.40;;;;;;;;;;5123091;28;20448;-84
2021/10/08 11:53:55;;;;;;;9.07;3.40;;;;;;;;;;5127544;28;20478;-83
2021/10/08 11:56:26;;;;;;;11.43;4.17;;;;;;;;;;5125353;28;20471;-86
2021/10/08 11:58:54;;;;;;;11.40;4.20;;;;;;;;;;5132041;28;20486;-84
2021/10/08 12:01:22;;;;;;;10.40;3.07;;;;;;;;;;5132763;28;20437;-82
2021/10/08 12:03:49;;;;;;;8.70;2.63;;;;;;;;;;5132951;28;20449;-85
2021/10/08 12:06:22;;;;;;;9.83;3.27;;;;;;;;;;5131622;28;20473;-86
2021/10/08 12:08:49;;;;;;;10.67;3.57;;;;;;;;;;5112440;28;20441;-83
2021/10/08 12:11:19;;;;;;;11.77;3.20;;;;;;;;;;5111743;28;20437;-82
2021/10/08 12:13:48;;;;;;;10.77;3.40;;;;;;;;;;5131933;28;20527;-86
2021/10/08 12:16:16;;;;;;;13.00;4.07;;;;;;;;;;5133675;27;20508;-82
2021/10/08 12:18:50;;;;;;;11.40;2.80;;;;;;;;;;5132657;28;20444;-83
2021/10/08 12:21:18;;;;;;;9.47;3.30;;;;;;;;;;5131833;28;20506;-83
2021/10/08 12:23:54;;;;;;;9.30;3.70;;;;;;;;;;5131877;28;20459;-81
2021/10/08 12:26:23;;;;;;;9.40;2.70;;;;;;;;;;5132420;27;20478;-84
2021/10/08 12:28:51;;;;;;;10.53;4.20;;;;;;;;;;5129925;28;20452;-82
2021/10/08 12:31:18;;;;;;;10.40;2.50;;;;;;;;;;5120403;28;20838;-82
2021/10/08 12:33:47;;;;;;;10.67;3.67;;;;;;;;;;5114876;28;20963;-83
2021/10/08 12:36:15;;;;;;;10.17;3.40;;;;;;;;;;5117913;28;20481;-82
2021/10/08 12:38:56;;;;;;;11.23;4.47;;;;;;;;;;5121784;28;20517;-85
2021/10/08 12:41:27;;;;;;;12.87;5.07;;;;;;;;;;5126217;28;20494;-84
2021/10/08 12:44:03;;;;;;;10.43;4.93;;;;;;;;;;5123525;28;20507;-86
2021/10/08 12:46:34;;;;;;;9.87;3.63;;;;;;;;;;5115987;28;20464;-87
2021/10/08 12:49:02;;;;;;;10.97;4.17;;;;;;;;;;5103813;28;20477;-85
2021/10/08 12:51:29;;;;;;;12.67;3.57;;;;;;;;;;5097773;28;20484;-84
2021/10/08 12:54:16;;;;;;;10.10;3.90;;;;;;;;;;5097490;28;20450;-84
2021/10/08 12:56:44;;;;;;;10.07;3.30;;;;;;;;;;5097133;28;20473;-85
2021/10/08 12:59:12;;;;;;;10.10;3.20;;;;;;;;;;5102526;28;20510;-86
2021/10/08 13:01:39;;;;;;;11.20;3.53;;;;;;;;;;5112036;28;20536;-87
2021/10/08 13:04:18;;;;;;;12.07;4.33;;;;;;;;;;5130385;28;20447;-86
2021/10/08 13:06:46;;;;;;;10.83;3.10;;;;;;;;;;5103498;28;20989;-86
2021/10/08 13:09:15;;;;;;;9.47;3.37;;;;;;;;;;5115757;28;20457;-86
2021/10/08 13:11:43;;;;;;;10.73;3.47;;;;;;;;;;5114958;28;20817;-85
2021/10/08 13:14:19;;;;;;;11.27;4.50;;;;;;;;;;5116067;28;20502;-85
2021/10/08 13:16:47;;;;;;;9.50;3.93;;;;;;;;;;5116394;28;20829;-85
2021/10/08 13:19:31;;;;;;;11.93;4.17;;;;;;;;;;5116152;28;20972;-85
2021/10/08 13:21:58;;;;;;;10.40;3.53;;;;;;;;;;5117393;28;20506;-85
2021/10/08 13:24:25;;;;;;;16.60;4.23;;;;;;;;;;5119775;28;20436;-84
2021/10/08 13:26:53;;;;;;;12.13;4.13;;;;;;;;;;5120221;28;20472;-84
2021/10/08 13:29:21;;;;;;;12.63;4.57;;;;;;;;;;5118453;28;20829;-87
2021/10/08 13:31:49;;;;;;;12.00;4.43;;;;;;;;;;5119639;28;20438;-87
2021/10/08 13:34:16;;;;;;;9.17;3.30;;;;;;;;;;5118776;28;20453;-86
2021/10/08 13:36:43;;;;;;;9.63;3.50;;;;;;;;;;5120923;28;20473;-86
2021/10/08 13:39:11;;;;;;;11.93;4.07;;;;;;;;;;5120807;28;20457;-85
2021/10/08 13:41:38;;;;;;;10.93;4.03;;;;;;;;;;5122554;28;20476;-85
2021/10/08 13:44:06;;;;;;;11.67;3.57;;;;;;;;;;5118801;28;20484;-84
2021/10/08 13:46:37;;;;;;;9.77;4.10;;;;;;;;;;5109813;28;20535;-85
2021/10/08 13:49:04;;;;;;;10.30;3.57;;;;;;;;;;5111255;28;20445;-83
2021/10/08 13:51:31;;;;;;;11.00;3.50;;;;;;;;;;5100601;28;20517;-86
2021/10/08 13:53:58;;;;;;;9.37;3.20;;;;;;;;;;5120144;28;20453;-84
2021/10/08 13:56:25;;;;;;;10.47;3.03;;;;;;;;;;5120322;28;20464;-87
2021/10/08 13:58:52;;;;;;;9.83;3.33;;;;;;;;;;5121073;28;20457;-84
2021/10/08 14:01:20;;;;;;;9.27;2.90;;;;;;;;;;5107425;28;21066;-86
2021/10/08 14:03:55;;;;;;;9.23;3.03;;;;;;;;;;5118952;28;20441;-83
2021/10/08 14:09:15;;;;;;;11.87;4.00;;;;;;;;;;5110989;28;20425;-84
2021/10/08 14:11:42;;;;;;;11.47;2.97;;;;;;;;;;5120871;28;20453;-83
2021/10/08 14:14:10;;;;;;;11.40;3.60;;;;;;;;;;5121279;28;20868;-82
2021/10/08 14:16:37;;;;;;;9.60;3.00;;;;;;;;;;5118233;28;20468;-83
2021/10/08 14:19:06;;;;;;;9.30;2.87;;;;;;;;;;5121260;28;20465;-84
2021/10/08 14:21:33;;;;;;;9.90;3.43;;;;;;;;;;5119565;28;20491;-83
2021/10/08 14:24:00;;;;;;;10.50;3.73;;;;;;;;;;5117934;28;20495;-85
2021/10/08 14:26:27;;;;;;;11.93;3.40;;;;;;;;;;5118330;28;20563;-82
2021/10/08 14:28:54;;;;;;;9.50;3.50;;;;;;;;;;5118097;28;20513;-84
2021/10/08 14:31:21;;;;;;;11.40;3.57;;;;;;;;;;5116793;28;20445;-83
2021/10/08 14:33:49;;;;;;;11.20;3.83;;;;;;;;;;5117140;28;20533;-84
2021/10/08 14:36:17;;;;;;;15.13;2.90;;;;;;;;;;5119119;28;20469;-84
2021/10/08 14:38:44;;;;;;;11.10;3.40;;;;;;;;;;5118910;28;20449;-82
2021/10/08 14:41:11;;;;;;;11.47;3.20;;;;;;;;;;5123772;28;20487;-83
2021/10/08 14:43:39;;;;;;;9.40;3.30;;;;;;;;;;5126886;28;20456;-80
2021/10/08 14:46:07;;;;;;;9.13;2.63;;;;;;;;;;5120417;28;20449;-85
2021/10/08 14:48:34;;;;;;;9.90;2.57;;;;;;;;;;5120442;28;20445;-84